Home > Products > Valid Products > TAF

000
FTUS42 KCAE 240500 CCA
TAFDNL
TAF COR
KDNL 240526Z 2406/2506 00000KT P6SM SKC
     FM240900 03006KT P6SM SKC
     FM241300 06010G15KT P6SM SKC
     FM242100 12007KT P6SM SCT045=



000
FTUS42 KCAE 240500
TAFCAE
TAF
KCAE 240524Z 2406/2506 03006KT P6SM SKC
     FM241300 06010G15KT P6SM SKC
     FM242100 12007KT P6SM SCT045=



000
FTUS42 KCAE 240500
TAFOGB
TAF
KOGB 240524Z 2406/2506 03006KT P6SM SKC
     FM241300 06010G15KT P6SM SKC
     FM242100 12007KT P6SM SCT045=



000
FTUS42 KCAE 240500
TAFAGS
TAF
KAGS 240524Z 2406/2506 00000KT P6SM SKC
      TEMPO 2406/2409 2SM BR
     FM240900 03006KT P6SM SKC
     FM241300 06010G15KT P6SM SKC
     FM242100 12007KT P6SM SCT045=



000
FTUS42 KCAE 240500
TAFDNL
TAF
KDNL 240524Z 2406/2506 00000KT P6SM SKC
     FM240900 03006KT P6SM SKC WS010/06030KT
     FM241300 06010G15KT P6SM SKC
     FM242100 12007KT P6SM SCT045=



000
FTUS42 KCAE 240500
TAFCUB
TAF
KCUB 240524Z 2406/2506 03004KT P6SM SKC
     FM241300 06008G14KT P6SM SKC
     FM242100 12007KT P6SM SCT045=



000
FTUS42 KCAE 240200 AAA
TAFCAE
TAF AMD
KCAE 240236Z 2403/2424 04005KT P6SM SKC
     FM241600 12008KT P6SM SKC=



000
FTUS42 KCAE 240200 AAA
TAFOGB
TAF AMD
KOGB 240236Z 2403/2424 00000KT P6SM SKC
     FM240500 04006KT P6SM SKC
     FM241700 10008KT P6SM SKC=



000
FTUS42 KCAE 240200 AAA
TAFAGS
TAF AMD
KAGS 240236Z 2403/2424 00000KT P6SM SKC
     FM240600 05005KT P6SM SKC
     FM241500 10006KT P6SM SKC=



000
FTUS42 KCAE 240200 AAA
TAFCUB
TAF AMD
KCUB 240236Z 2403/2424 03005KT P6SM SKC
     FM241700 14005KT P6SM SKC=



000
FTUS42 KCAE 240200 AAA
TAFDNL
TAF AMD
KDNL 240236Z 2403/2424 36005KT P6SM SKC
     FM240600 05008KT P6SM SKC
     FM241500 12008KT P6SM SKC=



000
FTUS42 KCAE 232300 CCA
TAFCUB
TAF COR
KCUB 232356Z 2400/2424 VRB04KT P6SM SKC
      TEMPO 2400/2401 6SM FU
     FM240200 03005KT P6SM SKC
     FM241700 14005KT P6SM SKC=



000
FTUS42 KCAE 232300
TAFCAE
TAF
KCAE 232336Z 2400/2424 31005KT P6SM SKC
      TEMPO 2400/2402 6SM FU
     FM240200 04005KT P6SM SKC
     FM241600 12008KT P6SM SKC=



000
FTUS42 KCAE 232300
TAFDNL
TAF
KDNL 232336Z 2400/2424 34005KT P6SM SKC
     FM240300 06006KT P6SM SKC
     FM241700 12008KT P6SM SKC=



000
FTUS42 KCAE 232300
TAFAGS
TAF
KAGS 232336Z 2400/2424 02005KT P6SM SKC
     FM241700 12006KT P6SM SKC=



000
FTUS42 KCAE 232300
TAFOGB
TAF
KOGB 232336Z 2400/2424 36006KT P6SM SKC
     FM240300 04005KT P6SM SKC
     FM241700 10008KT P6SM SKC=



000
FTUS42 KCAE 232300
TAFCUB
TAF
KCUB 232336Z 2400/2424 VRB03KT 6SM FU SKC
      TEMPO 2400/2402 5SM FU
     FM240300 03004KT P6SM SKC
     FM241700 14005KT P6SM SKC=



000
FTUS42 KCAE 232000 AAA
TAFAGS
TAF AMD
KAGS 232038Z 2321/2418 33008KT P6SM SKC
     FM240000 VRB03KT P6SM SKC=



000
FTUS42 KCAE 232000 AAA
TAFOGB
TAF AMD
KOGB 232038Z 2321/2418 29010KT P6SM SKC
     FM240000 04005KT P6SM SKC=



000
FTUS42 KCAE 232000 AAA
TAFDNL
TAF AMD
KDNL 232038Z 2321/2418 32006KT P6SM SKC
     FM240000 06006KT P6SM SKC=



000
FTUS42 KCAE 232000 AAA
TAFCAE
TAF AMD
KCAE 232038Z 2321/2418 30010KT P6SM SKC
     FM240000 04005KT P6SM SKC=



000
FTUS42 KCAE 232000 AAA
TAFCUB
TAF AMD
KCUB 232038Z 2321/2418 32006KT P6SM SKC
     FM240000 VRB03KT P6SM SKC=



000
FTUS42 KCAE 231700
TAFOGB
TAF
KOGB 231724Z 2318/2418 33011G14KT P6SM SKC
     FM232300 04005KT P6SM SKC=



000
FTUS42 KCAE 231700
TAFAGS
TAF
KAGS 231724Z 2318/2418 36004KT P6SM SKC
     FM232300 VRB03KT P6SM SKC=



000
FTUS42 KCAE 231700
TAFCUB
TAF
KCUB 231724Z 2318/2418 28008KT P6SM SKC
     FM232300 VRB03KT P6SM SKC=



000
FTUS42 KCAE 231700
TAFCAE
TAF
KCAE 231724Z 2318/2418 32010G14KT P6SM SKC
     FM232300 04005KT P6SM SKC=



000
FTUS42 KCAE 231700
TAFDNL
TAF
KDNL 231724Z 2318/2418 VRB03KT P6SM SKC
     FM232300 06006KT P6SM SKC=



000
FTUS42 KCAE 231600 AAC
TAFAGS
TAF AMD
KAGS 231601Z 2316/2412 35007KT P6SM SKC
     FM232300 VRB03KT P6SM SKC=



000
FTUS42 KCAE 231600 AAB
TAFDNL
TAF AMD
KDNL 231601Z 2316/2412 34006KT P6SM SKC
     FM232300 06006KT P6SM SKC=



000
FTUS42 KCAE 231500 AAC
TAFCUB
TAF AMD
KCUB 231559Z 2316/2412 34006KT P6SM SKC
     FM232300 VRB03KT P6SM SKC=



000
FTUS42 KCAE 231500 AAB
TAFOGB
TAF AMD
KOGB 231559Z 2316/2412 34008KT P6SM SKC
     FM232300 04005KT P6SM SKC=



000
FTUS42 KCAE 231500 AAB
TAFCAE
TAF AMD
KCAE 231558Z 2316/2412 33008KT P6SM SKC
     FM232300 04005KT P6SM SKC=



000
FTUS42 KCAE 231300 AAA
TAFDNL
TAF AMD
KDNL 231329Z 2313/2412 34006KT P6SM SKC
     FM232300 05006KT P6SM SKC=



000
FTUS42 KCAE 231300 AAB
TAFAGS
TAF AMD
KAGS 231328Z 2313/2412 33007KT P6SM SKC
     FM232300 05006KT P6SM SKC=



000
FTUS42 KCAE 231300 AAA
TAFOGB
TAF AMD
KOGB 231327Z 2313/2412 34009KT P6SM SKC
     FM232300 03005KT P6SM SKC=



000
FTUS42 KCAE 231300 AAB
TAFCUB
TAF AMD
KCUB 231326Z 2313/2412 34007KT P6SM SKC
     FM232300 VRB03KT P6SM SKC=



000
FTUS42 KCAE 231300 AAA
TAFCAE
TAF AMD
KCAE 231325Z 2313/2412 33009KT P6SM SKC
     FM232300 03006KT P6SM SKC=



000
FTUS42 KCAE 231200 AAA
TAFCUB
TAF AMD
KCUB 231234Z 2313/2412 VRB04KT 4SM BR SKC
     FM231400 34007KT P6SM SKC
     FM232300 VRB03KT P6SM SKC=



000
FTUS42 KCAE 231200 AAA
TAFAGS
TAF AMD
KAGS 231232Z 2313/2412 VRB03KT 3SM BR SKC
     FM231300 VRB03KT 5SM BR SKC
     FM231400 33007KT P6SM SKC
     FM232300 03006KT P6SM SKC=



000
FTUS42 KCAE 231100
TAFCUB
TAF
KCUB 231134Z 2312/2412 VRB03KT 2SM BR SCT002
      TEMPO 2312/2313 3/4SM BR BKN003
     FM231300 VRB04KT 4SM BR SKC
     FM231400 34007KT P6SM SKC
     FM232300 VRB03KT P6SM SKC=



000
FTUS42 KCAE 231100
TAFCAE
TAF
KCAE 231134Z 2312/2412 VRB03KT 4SM BR SKC
     FM231300 33008KT P6SM SKC
     FM232300 03006KT P6SM SKC=



000
FTUS42 KCAE 231100
TAFOGB
TAF
KOGB 231134Z 2312/2412 31005KT 4SM BR SKC
      TEMPO 2312/2313 2SM BR
     FM231300 34008KT P6SM SKC
     FM232300 03006KT P6SM SKC=



000
FTUS42 KCAE 231100
TAFAGS
TAF
KAGS 231134Z 2312/2412 VRB03KT 3SM BR SKC
      TEMPO 2312/2313 1SM BR BKN004
     FM231300 33007KT P6SM SKC
     FM232300 03006KT P6SM SKC=



000
FTUS42 KCAE 231100
TAFDNL
TAF
KDNL 231134Z 2312/2412 31005KT P6SM SKC
     FM231300 34006KT P6SM SKC
     FM232300 03006KT P6SM SKC=



000
FTUS42 KCAE 230800 AAB
TAFAGS
TAF AMD
KAGS 230854Z 2309/2406 VRB03KT 1SM BR SKC
      TEMPO 2309/2312 1/4SM FG
     FM231300 36010KT P6SM SKC=



000
FTUS42 KCAE 230800 AAB
TAFCAE
TAF AMD
KCAE 230854Z 2309/2406 VRB03KT 1 1/2SM BR SKC
      TEMPO 2309/2312 1/2SM FG
     FM231300 36010KT P6SM SKC=



000
FTUS42 KCAE 230800 AAB
TAFDNL
TAF AMD
KDNL 230854Z 2309/2406 28005KT P6SM SKC
      TEMPO 2310/2312 VRB03KT 3SM BR
     FM231300 36010KT P6SM SKC=



000
FTUS42 KCAE 230800 AAB
TAFCUB
TAF AMD
KCUB 230854Z 2309/2406 VRB03KT 1 1/2SM BR SKC
      TEMPO 2309/2312 1/2SM FG
     FM231300 36008KT P6SM SKC=



000
FTUS42 KCAE 230800 AAB
TAFOGB
TAF AMD
KOGB 230854Z 2309/2406 28005KT 3SM BR SKC
      TEMPO 2310/2312 VRB03KT 1 1/2SM BR
     FM231300 36010KT P6SM SKC=



000
FTUS42 KCAE 230700 AAA
TAFOGB
TAF AMD
KOGB 230732Z 2308/2406 26005KT 3SM BR SKC
      TEMPO 2308/2312 VRB03KT 1SM BR
     FM231300 36010KT P6SM SKC=



000
FTUS42 KCAE 230700 AAA
TAFCAE
TAF AMD
KCAE 230732Z 2308/2406 26005KT 3SM BR SKC
      TEMPO 2308/2312 VRB03KT 1SM BR
     FM231300 36010KT P6SM SKC=



000
FTUS42 KCAE 230700 AAA
TAFAGS
TAF AMD
KAGS 230732Z 2308/2406 VRB03KT 2SM BR SKC
      TEMPO 2308/2312 VRB03KT 1/4SM FG
     FM231300 36010KT P6SM SKC=



000
FTUS42 KCAE 230700 AAA
TAFCUB
TAF AMD
KCUB 230732Z 2308/2406 VRB03KT 3SM BR SKC
      TEMPO 2308/2312 1SM BR
     FM231300 36008KT P6SM SKC=



000
FTUS42 KCAE 230700 AAA
TAFDNL
TAF AMD
KDNL 230732Z 2308/2406 26005KT P6SM SKC
      TEMPO 2308/2312 VRB03KT 3SM BR
     FM231300 36010KT P6SM SKC=



000
FTUS42 KCAE 230500
TAFDNL
TAF
KDNL 230527Z 2306/2406 26005KT P6SM SKC
      TEMPO 2307/2311 VRB03KT 3SM BR
     FM231200 36010KT P6SM SKC=



000
FTUS42 KCAE 230500
TAFOGB
TAF
KOGB 230527Z 2306/2406 26005KT P6SM SKC
     FM230700 26005KT 4SM BR SKC
      TEMPO 2307/2311 VRB03KT 1 1/2SM BR
     FM231200 36010KT P6SM SKC=



000
FTUS42 KCAE 230500
TAFAGS
TAF
KAGS 230527Z 2306/2406 VRB03KT P6SM SKC
     FM230700 26005KT 3SM BR SKC
      TEMPO 2307/2311 VRB03KT 3/4SM BR
     FM231200 36010KT P6SM SKC=



000
FTUS42 KCAE 230500
TAFCAE
TAF
KCAE 230527Z 2306/2406 26005KT 4SM BR SKC
      TEMPO 2306/2310 VRB03KT 2SM BR
     FM231100 36010KT P6SM SKC=



000
FTUS42 KCAE 230500
TAFCUB
TAF
KCUB 230527Z 2306/2406 VRB03KT 4SM BR SKC
      TEMPO 2306/2310 2SM BR
     FM231100 36008KT P6SM SKC=



000
FTUS42 KCAE 230200 AAA
TAFAGS
TAF AMD
KAGS 230242Z 2303/2324 26004KT P6SM SKC
     FM230800 00000KT 3SM BR SKC
     FM231300 33006KT P6SM SKC=



000
FTUS42 KCAE 230200 AAA
TAFOGB
TAF AMD
KOGB 230242Z 2303/2324 25004KT P6SM SCT200
     FM230900 32004KT 4SM BR SKC
     FM231300 35010KT P6SM SKC=



000
FTUS42 KCAE 230200 AAA
TAFCUB
TAF AMD
KCUB 230242Z 2303/2324 VRB03KT P6SM SCT200
     FM230500 VRB03KT 6SM BR SKC
     FM231300 36009KT P6SM SKC=



000
FTUS42 KCAE 230200 AAA
TAFCAE
TAF AMD
KCAE 230242Z 2303/2324 26005KT P6SM SCT200
     FM231300 01010KT P6SM SKC=



000
FTUS42 KCAE 230200 AAA
TAFDNL
TAF AMD
KDNL 230242Z 2303/2324 26004KT P6SM SKC
     FM230900 30004KT 6SM BR SKC
     FM231300 33006KT P6SM SKC=



000
FTUS42 KCAE 222300
TAFAGS
TAF
KAGS 222334Z 2300/2324 27005KT P6SM BKN100
     FM230300 28005KT P6SM SCT080
     FM230700 00000KT 3SM BR SKC
     FM231300 33006KT P6SM SKC=



000
FTUS42 KCAE 222300
TAFCUB
TAF
KCUB 222334Z 2300/2324 VRB04KT P6SM BKN100
     FM230400 VRB03KT P6SM SCT060
     FM231500 36009KT P6SM SKC=



000
FTUS42 KCAE 222300
TAFOGB
TAF
KOGB 222334Z 2300/2324 27005KT P6SM SCT050 OVC090
     FM230400 32006KT P6SM SCT080
     FM230800 32004KT 4SM BR SKC
     FM231300 35010KT P6SM SKC=



000
FTUS42 KCAE 222300
TAFDNL
TAF
KDNL 222334Z 2300/2324 27005KT P6SM BKN100
     FM230300 28005KT P6SM SCT080
     FM230700 30004KT 6SM BR SKC
     FM231300 33006KT P6SM SKC=



000
FTUS42 KCAE 222300
TAFCAE
TAF
KCAE 222334Z 2300/2324 27005KT P6SM BKN100
     FM230400 32005KT P6SM SCT060
     FM231500 01010KT P6SM SKC=



000
FTUS42 KCAE 222000 CCA
TAFOGB
TAF COR
KOGB 222055Z 2221/2318 28010G20KT P6SM SCT050 OVC080
      TEMPO 2221/2301 4SM -SHRA SCT035 BKN050
     FM230100 27010KT P6SM VCSH BKN040 OVC060
     FM230400 32004KT P6SM SCT060=



000
FTUS42 KCAE 222000 AAB
TAFOGB
TAF AMD
KOGB 222035Z 2221/2318 29010G20KT P6SM SCT050 OVC080
      TEMPO 2222/2301 4SM -SHRA BKN050
     FM230100 27010KT P6SM VCSH BKN040 OVC060
     FM230400 32004KT P6SM SCT060=



000
FTUS42 KCAE 221900 AAB
TAFCUB
TAF AMD
KCUB 221924Z 2219/2318 29010KT P6SM SCT060 OVC090
      TEMPO 2220/2224 -SHRA SCT040 BKN060
     FM230000 27010KT P6SM VCSH BKN040 OVC060
     FM230400 32004KT P6SM SCT060=



000
FTUS42 KCAE 221900 AAB
TAFCAE
TAF AMD
KCAE 221922Z 2219/2318 29012G20KT P6SM SCT060 OVC090
      TEMPO 2220/2224 -SHRA SCT040 BKN060
     FM230000 27010KT P6SM VCSH BKN040 OVC060
     FM230400 32004KT P6SM SCT060=



000
FTUS42 KCAE 221900 AAB
TAFAGS
TAF AMD
KAGS 221914Z 2219/2318 27010G18KT P6SM SCT060 OVC090
      TEMPO 2219/2222 -SHRA SCT030 BKN060
     FM222300 27010KT P6SM VCSH BKN040 OVC060
     FM230400 32004KT P6SM SCT060=



000
FTUS42 KCAE 221900 AAB
TAFDNL
TAF AMD
KDNL 221913Z 2219/2318 26010G18KT P6SM SCT060 OVC090
      TEMPO 2219/2222 -SHRA SCT025 BKN060
     FM222300 27010KT P6SM VCSH BKN040 OVC060
     FM230400 32004KT P6SM SCT060=



000
FTUS42 KCAE 221800 AAA
TAFCAE
TAF AMD
KCAE 221846Z 2219/2318 26012G20KT P6SM SCT050 BKN100
     FM222300 27010KT P6SM VCSH BKN040 OVC060
     FM230400 32004KT P6SM SCT060=



000
FTUS42 KCAE 221800 AAA
TAFDNL
TAF AMD
KDNL 221846Z 2219/2318 26012G20KT P6SM SCT050 BKN100
     FM222300 27010KT P6SM VCSH BKN040 OVC060
     FM230400 32004KT P6SM SCT060=



000
FTUS42 KCAE 221800 AAA
TAFCUB
TAF AMD
KCUB 221846Z 2219/2318 26012G20KT P6SM SCT050 BKN100
     FM222300 27010KT P6SM VCSH BKN040 OVC060
     FM230400 32004KT P6SM SCT060=



000
FTUS42 KCAE 221800 AAA
TAFOGB
TAF AMD
KOGB 221846Z 2219/2318 26012G20KT P6SM SCT050 BKN100
     FM222300 27010KT P6SM VCSH BKN040 OVC060
     FM230400 32004KT P6SM SCT060=



000
FTUS42 KCAE 221800 AAA
TAFAGS
TAF AMD
KAGS 221846Z 2219/2318 26012G20KT P6SM SCT050 BKN100
     FM222300 27010KT P6SM VCSH BKN040 OVC060
     FM230400 32004KT P6SM SCT060=



000
FTUS42 KCAE 221700
TAFDNL
TAF
KDNL 221720Z 2218/2318 26012G20KT P6SM SCT050 BKN100
     FM222300 27010KT P6SM VCSH BKN040 OVC060
     FM230400 32004KT P6SM SCT060=



000
FTUS42 KCAE 221700
TAFCUB
TAF
KCUB 221720Z 2218/2318 26012G20KT P6SM SCT050 BKN120
     FM222300 27010KT P6SM VCSH BKN040 OVC060
     FM230400 32004KT P6SM SCT060=



000
FTUS42 KCAE 221700
TAFOGB
TAF
KOGB 221720Z 2218/2318 26012G20KT P6SM SCT050 BKN120
     FM222300 27010KT P6SM VCSH BKN040 OVC060
     FM230400 32004KT P6SM SCT060=



000
FTUS42 KCAE 221700
TAFAGS
TAF
KAGS 221720Z 2218/2318 26012G20KT P6SM SCT050 BKN100
     FM222300 27010KT P6SM VCSH BKN040 OVC060
     FM230400 32004KT P6SM SCT060=



000
FTUS42 KCAE 221700
TAFCAE
TAF
KCAE 221720Z 2218/2318 26012G20KT P6SM SCT050 BKN120
     FM222300 27010KT P6SM VCSH BKN040 OVC060
     FM230400 32004KT P6SM SCT060=



000
FTUS42 KCAE 221400 AAB
TAFDNL
TAF AMD
KDNL 221430Z 2215/2312 25010KT P6SM SCT100
     FM221700 26012G20KT P6SM SCT040 BKN080
     FM222300 27010KT P6SM VCSH BKN035 OVC060=



000
FTUS42 KCAE 221400 AAB
TAFCUB
TAF AMD
KCUB 221430Z 2215/2312 25010KT P6SM SCT120
     FM221700 26012G20KT P6SM SCT040 BKN080
     FM222300 27010KT P6SM VCSH BKN035 OVC060=



000
FTUS42 KCAE 221400 AAB
TAFOGB
TAF AMD
KOGB 221430Z 2215/2312 25010KT P6SM SCT120
     FM221700 26012G20KT P6SM SCT040 BKN080
     FM222300 27010KT P6SM VCSH BKN035 OVC060=



000
FTUS42 KCAE 221400 AAB
TAFCAE
TAF AMD
KCAE 221430Z 2215/2312 25010KT P6SM SCT120
     FM221700 26012G20KT P6SM SCT040 BKN080
     FM222300 27010KT P6SM VCSH BKN035 OVC060=



000
FTUS42 KCAE 221400 AAB
TAFAGS
TAF AMD
KAGS 221430Z 2215/2312 25010KT P6SM SCT100
     FM221700 26012G20KT P6SM SCT040 BKN080
     FM222300 27010KT P6SM VCSH BKN035 OVC060=



000
FTUS42 KCAE 221300 AAA
TAFDNL
TAF AMD
KDNL 221301Z 2213/2312 00000KT P6SM BKN250
     FM221400 25010KT P6SM BKN100
     FM221700 26012G20KT P6SM SCT040 BKN080
     FM222300 27010KT P6SM VCSH BKN035 OVC060=



000
FTUS42 KCAE 221300 AAA
TAFOGB
TAF AMD
KOGB 221301Z 2213/2312 VRB03KT P6SM BKN250
     FM221400 25010KT P6SM BKN100
     FM221700 26012G20KT P6SM SCT040 BKN080
     FM222300 27010KT P6SM VCSH BKN035 OVC060=



000
FTUS42 KCAE 221300 AAA
TAFCUB
TAF AMD
KCUB 221301Z 2213/2312 VRB03KT P6SM BKN250
     FM221400 25010KT P6SM BKN100
     FM221700 26012G20KT P6SM SCT040 BKN080
     FM222300 27010KT P6SM VCSH BKN035 OVC060=



000
FTUS42 KCAE 221300 AAA
TAFAGS
TAF AMD
KAGS 221301Z 2213/2312 VRB03KT P6SM BKN250
     FM221400 25010KT P6SM BKN100
     FM221700 26012G20KT P6SM SCT040 BKN080
     FM222300 27010KT P6SM VCSH BKN035 OVC060=



000
FTUS42 KCAE 221300 AAA
TAFCAE
TAF AMD
KCAE 221301Z 2213/2312 VRB03KT P6SM BKN250
     FM221400 25010KT P6SM BKN100
     FM221700 26012G20KT P6SM SCT040 BKN080
     FM222300 27010KT P6SM VCSH BKN035 OVC060=



000
FTUS42 KCAE 221100
TAFAGS
TAF
KAGS 221120Z 2212/2312 00000KT 5SM BR BKN250
     FM221400 25010KT P6SM BKN100
     FM221700 26012G20KT P6SM SCT040 BKN080
     FM222300 27010KT P6SM VCSH BKN035 OVC060=



000
FTUS42 KCAE 221100
TAFDNL
TAF
KDNL 221120Z 2212/2312 00000KT P6SM BKN250
     FM221400 25010KT P6SM BKN100
     FM221700 26012G20KT P6SM SCT040 BKN080
     FM222300 27010KT P6SM VCSH BKN035 OVC060=



000
FTUS42 KCAE 221100
TAFCAE
TAF
KCAE 221120Z 2212/2312 00000KT P6SM BKN250
     FM221400 25010KT P6SM BKN100
     FM221700 26012G20KT P6SM SCT040 BKN080
     FM222300 27010KT P6SM VCSH BKN035 OVC060=



000
FTUS42 KCAE 221100
TAFCUB
TAF
KCUB 221120Z 2212/2312 00000KT P6SM BKN250
     FM221400 25010KT P6SM BKN100
     FM221700 26012G20KT P6SM SCT040 BKN080
     FM222300 27010KT P6SM VCSH BKN035 OVC060=



000
FTUS42 KCAE 221100
TAFOGB
TAF
KOGB 221120Z 2212/2312 00000KT P6SM BKN250
     FM221400 25010KT P6SM BKN100
     FM221700 26012G20KT P6SM SCT040 BKN080
     FM222300 27010KT P6SM VCSH BKN035 OVC060=



000
FTUS42 KCAE 221000 AAB
TAFOGB
TAF AMD
KOGB 221034Z 2211/2306 00000KT P6SM BKN250
     FM221400 25010KT P6SM BKN100
     FM221700 26012G20KT P6SM SCT040 BKN080
     FM222300 27010KT P6SM VCSH BKN035 OVC060=



000
FTUS42 KCAE 220900 AAA
TAFCUB
TAF AMD
KCUB 220922Z 2209/2306 00000KT P6SM BKN250
     FM221400 25010KT P6SM BKN100
     FM221700 26012G20KT P6SM SCT040 BKN080
     FM222300 27010KT P6SM VCSH BKN035 OVC060=



000
FTUS42 KCAE 220900 AAA
TAFOGB
TAF AMD
KOGB 220922Z 2209/2306 00000KT P6SM BKN250
      TEMPO 2210/2212 3SM BR
     FM221400 25010KT P6SM BKN100
     FM221700 26012G20KT P6SM SCT040 BKN080
     FM222300 27010KT P6SM VCSH BKN035 OVC060=



000
FTUS42 KCAE 220900 AAA
TAFCAE
TAF AMD
KCAE 220922Z 2209/2306 00000KT P6SM BKN250
     FM221400 25010KT P6SM BKN100
     FM221700 26012G20KT P6SM SCT040 BKN080
     FM222300 27010KT P6SM VCSH BKN035 OVC060=



000
FTUS42 KCAE 220900 AAA
TAFDNL
TAF AMD
KDNL 220922Z 2209/2306 00000KT P6SM BKN250
     FM221400 25010KT P6SM BKN100
     FM221700 26012G20KT P6SM SCT040 BKN080
     FM222300 27010KT P6SM VCSH BKN035 OVC060=



000
FTUS42 KCAE 220900 AAB
TAFAGS
TAF AMD
KAGS 220922Z 2209/2306 00000KT 5SM BR BKN250
      TEMPO 2209/2212 1/2SM FG VV002
     FM221400 25010KT P6SM BKN100
     FM221700 26012G20KT P6SM SCT040 BKN080
     FM222300 27010KT P6SM VCSH BKN035 OVC060=



000
FTUS42 KCAE 220800 AAA
TAFAGS
TAF AMD
KAGS 220825Z 2208/2306 00000KT 5SM BR BKN250
      TEMPO 2208/2211 1/2SM FG VV002
     FM221400 25010KT P6SM BKN100
     FM221700 26012G20KT P6SM SCT040 BKN080
     FM222300 27010KT P6SM VCSH BKN035 OVC060=



000
FTUS42 KCAE 220500
TAFDNL
TAF
KDNL 220530Z 2206/2306 00000KT P6SM BKN250
     FM221400 25010KT P6SM BKN100
     FM221700 26012G20KT P6SM SCT040 BKN080
     FM222300 27010KT P6SM VCSH BKN035 OVC060=



000
FTUS42 KCAE 220500
TAFAGS
TAF
KAGS 220530Z 2206/2306 00000KT P6SM BKN250
      TEMPO 2206/2210 1 1/2SM BR
     FM221400 25010KT P6SM BKN100
     FM221700 26012G20KT P6SM SCT040 BKN080
     FM222300 27010KT P6SM VCSH BKN035 OVC060=



000
FTUS42 KCAE 220500
TAFOGB
TAF
KOGB 220530Z 2206/2306 00000KT P6SM BKN250
      TEMPO 2208/2211 3SM BR
     FM221400 25010KT P6SM BKN100
     FM221700 26012G20KT P6SM SCT040 BKN080
     FM222300 27010KT P6SM VCSH BKN035 OVC060=



000
FTUS42 KCAE 220500
TAFCAE
TAF
KCAE 220530Z 2206/2306 00000KT P6SM BKN250
     FM221400 25010KT P6SM BKN100
     FM221700 26012G20KT P6SM SCT040 BKN080
     FM222300 27010KT P6SM VCSH BKN035 OVC060=



000
FTUS42 KCAE 220500
TAFCUB
TAF
KCUB 220530Z 2206/2306 00000KT P6SM BKN250
     FM221400 25010KT P6SM BKN100
     FM221700 26012G20KT P6SM SCT040 BKN080
     FM222300 27010KT P6SM VCSH BKN035 OVC060=



000
FTUS42 KCAE 220200 AAA
TAFAGS
TAF AMD
KAGS 220231Z 2203/2224 00000KT P6SM SCT250
     FM221500 27010KT P6SM SCT040 BKN120
     FM221800 28012G20KT P6SM BKN050 OVC100=



000
FTUS42 KCAE 220200 AAA
TAFOGB
TAF AMD
KOGB 220231Z 2203/2224 00000KT P6SM SKC
     FM221500 26012KT P6SM SCT040 BKN120
     FM221800 27012G20KT P6SM SCT040 OVC100=



000
FTUS42 KCAE 220200 AAA
TAFCUB
TAF AMD
KCUB 220231Z 2203/2224 00000KT P6SM SCT250
     FM221500 26008KT P6SM SCT040 BKN120
     FM221800 28010G20KT P6SM SCT040 OVC100=



000
FTUS42 KCAE 220200 AAA
TAFDNL
TAF AMD
KDNL 220231Z 2203/2224 00000KT P6SM SCT250
     FM221500 28010KT P6SM SCT040 BKN120
     FM221800 28012KT P6SM BKN050 OVC100=



000
FTUS42 KCAE 220200 AAA
TAFCAE
TAF AMD
KCAE 220231Z 2203/2224 00000KT P6SM SCT250
     FM221500 26012KT P6SM SCT040 BKN120
     FM221800 27013G20KT P6SM SCT040 OVC100=



000
FTUS42 KCAE 212300
TAFDNL
TAF
KDNL 212338Z 2200/2224 00000KT P6SM SCT250
     FM221500 28010KT P6SM SCT040 BKN120
     FM221800 28012KT P6SM BKN050 OVC100=



000
FTUS42 KCAE 212300
TAFAGS
TAF
KAGS 212338Z 2200/2224 00000KT P6SM SCT250
     FM221500 27010KT P6SM SCT040 BKN120
     FM221800 28012G20KT P6SM BKN050 OVC100=



000
FTUS42 KCAE 212300
TAFCAE
TAF
KCAE 212338Z 2200/2224 00000KT P6SM SCT250
     FM221500 26012KT P6SM SCT040 BKN120
     FM221800 27013G20KT P6SM SCT040 OVC100=



000
FTUS42 KCAE 212300
TAFCUB
TAF
KCUB 212338Z 2200/2224 00000KT P6SM SCT250
     FM221500 26008KT P6SM SCT040 BKN120
     FM221800 28010G20KT P6SM SCT040 OVC100=



000
FTUS42 KCAE 212300
TAFOGB
TAF
KOGB 212338Z 2200/2224 00000KT P6SM SCT250
     FM221500 26012KT P6SM SCT040 BKN120
     FM221800 27012G20KT P6SM SCT040 OVC100=



000
FTUS42 KCAE 212000 AAA
TAFAGS
TAF AMD
KAGS 212049Z 2121/2218 33006KT P6SM SCT250
     FM220000 00000KT P6SM SCT250
     FM221500 26011KT P6SM SCT040 BKN120=



000
FTUS42 KCAE 212000 AAA
TAFOGB
TAF AMD
KOGB 212049Z 2121/2218 VRB03KT P6SM SCT250
     FM221500 26010KT P6SM SCT040 BKN120=



000
FTUS42 KCAE 212000 AAA
TAFCUB
TAF AMD
KCUB 212049Z 2121/2218 VRB03KT P6SM SCT250
     FM221500 26011KT P6SM SCT040 BKN120=



000
FTUS42 KCAE 212000 AAA
TAFCAE
TAF AMD
KCAE 212049Z 2121/2218 VRB03KT P6SM SCT250
     FM221500 26011KT P6SM SCT040 BKN120=



000
FTUS42 KCAE 212000 AAA
TAFDNL
TAF AMD
KDNL 212049Z 2121/2218 VRB05KT P6SM SCT250
     FM221500 26011KT P6SM SCT040 BKN120=



000
FTUS42 KCAE 211700
TAFOGB
TAF
KOGB 211736Z 2118/2218 36008KT P6SM SKC
     FM212300 VRB03KT P6SM SKC
     FM221500 26010KT P6SM SCT040 BKN120=



000
FTUS42 KCAE 211700
TAFCAE
TAF
KCAE 211736Z 2118/2218 36008KT P6SM SKC
     FM212300 VRB03KT P6SM FEW250
     FM221500 26011KT P6SM SCT040 BKN120=



000
FTUS42 KCAE 211700
TAFCUB
TAF
KCUB 211736Z 2118/2218 36006KT P6SM SKC
     FM212300 VRB03KT P6SM FEW250
     FM221500 26011KT P6SM SCT040 BKN120=



000
FTUS42 KCAE 211700
TAFDNL
TAF
KDNL 211736Z 2118/2218 36008KT P6SM SKC
     FM212300 VRB03KT P6SM FEW250
     FM221500 26011KT P6SM SCT040 BKN120=



000
FTUS42 KCAE 211700
TAFAGS
TAF
KAGS 211736Z 2118/2218 36008KT P6SM SKC
     FM212300 VRB03KT P6SM FEW250
     FM221500 26011KT P6SM SCT040 BKN120=



000
FTUS42 KCAE 211400 AAA
TAFDNL
TAF AMD
KDNL 211436Z 2115/2212 36008KT P6SM SKC
     FM212300 VRB03KT P6SM FEW250=



000
FTUS42 KCAE 211400 AAA
TAFAGS
TAF AMD
KAGS 211436Z 2115/2212 36008KT P6SM SKC
     FM212300 VRB03KT P6SM FEW250=



000
FTUS42 KCAE 211400 AAA
TAFCAE
TAF AMD
KCAE 211436Z 2115/2212 36008KT P6SM SKC
     FM212300 VRB03KT P6SM FEW250=



000
FTUS42 KCAE 211400 AAA
TAFOGB
TAF AMD
KOGB 211436Z 2115/2212 36010KT P6SM SKC
     FM212300 VRB03KT P6SM FEW250=



000
FTUS42 KCAE 211400 AAA
TAFCUB
TAF AMD
KCUB 211436Z 2115/2212 36006KT P6SM SKC
     FM212300 VRB03KT P6SM FEW250=



000
FTUS42 KCAE 211100
TAFOGB
TAF
KOGB 211127Z 2112/2212 36010KT P6SM SKC
     FM212300 VRB03KT P6SM FEW250=



000
FTUS42 KCAE 211100
TAFCUB
TAF
KCUB 211127Z 2112/2212 36006KT P6SM SKC
     FM212300 VRB03KT P6SM FEW250=



000
FTUS42 KCAE 211100
TAFDNL
TAF
KDNL 211127Z 2112/2212 36008KT P6SM SKC
     FM212300 VRB03KT P6SM FEW250=



000
FTUS42 KCAE 211100
TAFAGS
TAF
KAGS 211127Z 2112/2212 36008KT P6SM SKC
     FM212300 VRB03KT P6SM FEW250=



000
FTUS42 KCAE 211100
TAFCAE
TAF
KCAE 211127Z 2112/2212 36008KT P6SM SKC
     FM212300 VRB03KT P6SM FEW250=



000
FTUS42 KCAE 210900 AAA
TAFCAE
TAF AMD
KCAE 210928Z 2109/2206 36005KT P6SM SKC
     FM211400 36008KT P6SM SKC
     FM212300 VRB03KT P6SM SKC=



000
FTUS42 KCAE 210900 AAA
TAFAGS
TAF AMD
KAGS 210928Z 2109/2206 35004KT P6SM SKC
     FM211400 36007KT P6SM SKC
     FM212300 VRB03KT P6SM SKC=



000
FTUS42 KCAE 210900 AAA
TAFOGB
TAF AMD
KOGB 210928Z 2109/2206 02006KT P6SM SKC
     FM211400 36010KT P6SM SKC
     FM212300 VRB03KT P6SM SKC=



000
FTUS42 KCAE 210900 AAA
TAFDNL
TAF AMD
KDNL 210928Z 2109/2206 35005KT P6SM SKC
     FM211400 36008KT P6SM SKC
     FM212300 VRB03KT P6SM SKC=



000
FTUS42 KCAE 210900 AAA
TAFCUB
TAF AMD
KCUB 210928Z 2109/2206 VRB03KT P6SM SKC
     FM211400 36006KT P6SM SKC
     FM212300 VRB03KT P6SM SKC=



    US Dept of Commerce
    National Oceanic and Atmospheric Administration
    National Weather Service
    1325 East West Highway
    Silver Spring, MD 20910
    Page Author: NWS Internet Services Team
Disclaimer
Information Quality
Credits
Glossary
Privacy Policy
Freedom of Information Act (FOIA)
About Us
Career Opportunities